createdAt,value
2023-09-23T00:00:19.478Z,19.30
2023-09-23T00:02:46.463Z,19.30
2023-09-23T00:05:16.417Z,19.40
2023-09-23T00:07:44.962Z,19.30
2023-09-23T00:10:12.524Z,19.30
2023-09-23T00:12:43.917Z,19.30
2023-09-23T00:15:14.526Z,19.30
2023-09-23T00:17:42.282Z,19.30
2023-09-23T00:20:17.609Z,19.30
2023-09-23T00:22:48.738Z,19.20
2023-09-23T00:25:20.123Z,19.20
2023-09-23T00:27:47.251Z,19.30
2023-09-23T00:30:14.668Z,19.30
2023-09-23T00:32:43.068Z,19.30
2023-09-23T00:35:13.141Z,19.40
2023-09-23T00:37:41.525Z,19.40
2023-09-23T00:40:18.739Z,19.40
2023-09-23T00:42:49.616Z,19.30
2023-09-23T00:45:21.457Z,19.40
2023-09-23T00:47:48.315Z,19.40
2023-09-23T00:50:22.073Z,19.40
2023-09-23T00:52:53.204Z,19.30
2023-09-23T00:55:27.181Z,19.30
2023-09-23T00:57:54.338Z,19.20
2023-09-23T01:00:28.275Z,19.20
2023-09-23T01:02:59.356Z,19.10
2023-09-23T01:05:31.229Z,19.10
2023-09-23T01:08:12.291Z,19.10
2023-09-23T01:10:40.373Z,19.20
2023-09-23T01:13:09.827Z,19.10
2023-09-23T01:15:47.787Z,19.10
2023-09-23T01:18:14.798Z,19.00
2023-09-23T01:20:48.521Z,19.00
2023-09-23T01:23:15.332Z,19.00
2023-09-23T01:25:42.227Z,19.00
2023-09-23T01:28:19.564Z,19.00
2023-09-23T01:30:46.989Z,18.90
2023-09-23T01:33:17.396Z,19.00
2023-09-23T01:35:45.071Z,19.00
2023-09-23T01:38:12.470Z,19.00
2023-09-23T01:40:44.484Z,19.00
2023-09-23T01:43:13.065Z,19.00
2023-09-23T01:45:40.663Z,19.00
2023-09-23T01:48:08.879Z,19.00
2023-09-23T01:50:35.770Z,19.10
2023-09-23T01:53:02.680Z,19.00
2023-09-23T01:55:30.679Z,19.00
2023-09-23T01:57:57.748Z,19.00
2023-09-23T02:00:29.967Z,19.00
2023-09-23T02:02:58.859Z,19.00
2023-09-23T02:05:30.495Z,19.00
2023-09-23T02:07:57.653Z,19.00
2023-09-23T02:10:27.821Z,19.00
2023-09-23T02:12:55.255Z,19.00
2023-09-23T02:15:22.057Z,18.90
2023-09-23T02:17:50.493Z,18.90
2023-09-23T02:20:20.927Z,18.90
2023-09-23T02:22:55.183Z,18.90
2023-09-23T02:25:26.407Z,18.90
2023-09-23T02:27:54.180Z,18.70
2023-09-23T02:30:21.265Z,18.80
2023-09-23T02:32:48.496Z,18.80
2023-09-23T02:35:17.145Z,18.80
2023-09-23T02:37:52.014Z,18.90
2023-09-23T02:40:19.694Z,18.90
2023-09-23T02:42:48.838Z,18.90
2023-09-23T02:45:17.948Z,18.90
2023-09-23T02:47:45.890Z,18.80
2023-09-23T02:50:15.709Z,18.80
2023-09-23T02:52:46.081Z,18.80
2023-09-23T02:55:16.125Z,18.90
2023-09-23T02:57:50.114Z,18.90
2023-09-23T03:00:18.889Z,18.90
2023-09-23T03:02:47.177Z,18.90
2023-09-23T03:05:17.804Z,18.90
2023-09-23T03:07:49.316Z,18.90
2023-09-23T03:10:20.751Z,18.90
2023-09-23T03:13:03.211Z,18.80
2023-09-23T03:15:52.139Z,18.90
2023-09-23T03:18:28.982Z,18.90
2023-09-23T03:20:56.706Z,18.80
2023-09-23T03:23:24.396Z,18.80
2023-09-23T03:25:52.547Z,18.80
2023-09-23T03:28:19.673Z,18.80
2023-09-23T03:30:50.109Z,18.70
2023-09-23T03:33:22.530Z,18.70
2023-09-23T03:35:50.524Z,18.80
2023-09-23T03:38:17.850Z,18.80
2023-09-23T03:40:55.832Z,18.80
2023-09-23T03:43:22.900Z,18.90
2023-09-23T03:45:51.694Z,18.80
2023-09-23T03:48:20.832Z,18.90
2023-09-23T03:50:54.605Z,18.90
2023-09-23T03:53:22.602Z,18.90
2023-09-23T03:55:50.999Z,19.00
2023-09-23T03:58:20.938Z,19.00
2023-09-23T04:00:48.431Z,19.00
2023-09-23T04:03:16.096Z,19.00
2023-09-23T04:05:43.114Z,18.90
2023-09-23T04:08:10.634Z,19.00
2023-09-23T04:10:40.810Z,18.90
2023-09-23T04:13:07.665Z,18.90
2023-09-23T04:15:34.452Z,18.90
2023-09-23T04:18:06.516Z,18.90
2023-09-23T04:20:33.358Z,18.90
2023-09-23T04:23:00.214Z,18.90
2023-09-23T04:25:27.058Z,18.90
2023-09-23T04:27:54.303Z,18.90
2023-09-23T04:30:21.127Z,19.00
2023-09-23T04:32:48.253Z,19.00
2023-09-23T04:35:17.442Z,19.00
2023-09-23T04:37:44.550Z,18.90
2023-09-23T04:40:15.739Z,18.90
2023-09-23T04:42:43.774Z,18.80
2023-09-23T04:45:12.215Z,18.80
2023-09-23T04:47:41.097Z,18.70
2023-09-23T04:50:13.047Z,18.80
2023-09-23T04:52:41.994Z,18.90
2023-09-23T04:55:09.293Z,18.90
2023-09-23T04:57:37.138Z,18.80
2023-09-23T05:00:05.932Z,18.80
2023-09-23T05:02:32.884Z,18.90
2023-09-23T05:04:59.999Z,18.80
2023-09-23T05:07:27.055Z,18.80
2023-09-23T05:09:56.845Z,18.80
2023-09-23T05:12:25.060Z,18.70
2023-09-23T05:14:54.327Z,18.70
2023-09-23T05:17:22.572Z,18.70
2023-09-23T05:19:49.531Z,18.70
2023-09-23T05:22:16.485Z,18.70
2023-09-23T05:24:48.489Z,18.70
2023-09-23T05:27:16.024Z,18.70
2023-09-23T05:29:44.610Z,18.70
2023-09-23T05:32:12.089Z,18.80
2023-09-23T05:34:43.733Z,18.80
2023-09-23T05:37:13.832Z,18.90
2023-09-23T05:39:47.028Z,18.90
2023-09-23T05:42:15.078Z,19.00
2023-09-23T05:44:42.421Z,19.00
2023-09-23T05:47:10.293Z,19.00
2023-09-23T05:49:39.717Z,19.10
2023-09-23T05:52:06.642Z,19.10
2023-09-23T05:54:33.508Z,19.20
2023-09-23T05:57:00.391Z,19.30
2023-09-23T05:59:28.153Z,19.30
2023-09-23T06:01:55.244Z,19.40
2023-09-23T06:04:22.082Z,19.40
2023-09-23T06:06:48.910Z,19.40
2023-09-23T06:09:16.379Z,19.40
2023-09-23T06:11:44.660Z,19.50
2023-09-23T06:14:13.062Z,19.50
2023-09-23T06:16:40.244Z,19.60
2023-09-23T06:19:08.957Z,19.60
2023-09-23T06:21:37.732Z,19.60
2023-09-23T06:24:04.741Z,19.70
2023-09-23T06:26:31.576Z,19.70
2023-09-23T06:28:59.120Z,19.70
2023-09-23T06:31:26.102Z,19.60
2023-09-23T06:33:53.010Z,19.70
2023-09-23T06:36:19.873Z,19.60
2023-09-23T06:38:46.676Z,19.70
2023-09-23T06:41:13.531Z,19.70
2023-09-23T06:43:41.222Z,19.70
2023-09-23T06:46:08.371Z,19.70
2023-09-23T06:48:35.692Z,19.70
2023-09-23T06:51:03.989Z,19.70
2023-09-23T06:53:31.813Z,19.70
2023-09-23T06:55:58.786Z,19.80
2023-09-23T06:58:25.660Z,19.90
2023-09-23T07:00:52.625Z,19.90
2023-09-23T07:03:19.622Z,20.00
2023-09-23T07:05:47.757Z,20.10
2023-09-23T07:08:15.575Z,20.10
2023-09-23T07:10:42.694Z,20.20
2023-09-23T07:13:12.917Z,20.30
2023-09-23T07:15:41.842Z,20.30
2023-09-23T07:18:09.571Z,20.30
2023-09-23T07:20:36.682Z,20.50
2023-09-23T07:23:04.099Z,20.70
2023-09-23T07:25:31.210Z,20.80
2023-09-23T07:28:01.063Z,20.80
2023-09-23T07:30:27.910Z,20.80
2023-09-23T07:32:54.781Z,20.80
2023-09-23T07:35:21.923Z,20.80
2023-09-23T07:37:48.909Z,20.90
2023-09-23T07:40:15.869Z,20.90
2023-09-23T07:42:42.985Z,21.10
2023-09-23T07:45:10.451Z,21.20
2023-09-23T07:47:37.462Z,21.50
2023-09-23T07:50:04.923Z,21.60
2023-09-23T07:52:35.388Z,21.80
2023-09-23T07:55:02.892Z,21.90
2023-09-23T07:57:29.692Z,22.10
2023-09-23T07:59:56.495Z,22.20
2023-09-23T08:02:23.354Z,22.30
2023-09-23T08:04:50.207Z,22.40
2023-09-23T08:07:17.220Z,22.40
2023-09-23T08:09:44.191Z,22.30
2023-09-23T08:12:10.913Z,22.30
2023-09-23T08:14:37.877Z,22.20
2023-09-23T08:17:05.323Z,22.40
2023-09-23T08:19:32.188Z,22.40
2023-09-23T08:21:59.007Z,22.30
2023-09-23T08:24:25.773Z,22.20
2023-09-23T08:26:54.526Z,22.20
2023-09-23T08:29:21.478Z,22.10
2023-09-23T08:31:48.446Z,22.00
2023-09-23T08:34:15.379Z,21.80
2023-09-23T08:36:42.099Z,21.80
2023-09-23T08:39:10.904Z,21.80
2023-09-23T08:41:37.685Z,21.90
2023-09-23T08:44:06.637Z,21.90
2023-09-23T08:46:34.257Z,21.80
2023-09-23T08:49:01.622Z,21.90
2023-09-23T08:51:28.968Z,21.90
2023-09-23T08:53:56.830Z,22.00
2023-09-23T08:56:23.739Z,22.00
2023-09-23T08:58:50.717Z,22.00
2023-09-23T09:01:18.401Z,22.10
2023-09-23T09:03:46.735Z,22.10
2023-09-23T09:06:17.962Z,22.10
2023-09-23T09:08:45.291Z,22.20
2023-09-23T09:11:13.216Z,22.10
2023-09-23T09:13:40.173Z,22.20
2023-09-23T09:16:07.537Z,22.30
2023-09-23T09:18:34.595Z,22.40
2023-09-23T09:21:02.266Z,22.40
2023-09-23T09:23:30.844Z,22.40
2023-09-23T09:25:57.864Z,22.40
2023-09-23T09:28:24.734Z,22.60
2023-09-23T09:31:01.313Z,22.70
2023-09-23T09:33:30.429Z,22.90
2023-09-23T09:35:58.091Z,23.10
2023-09-23T09:38:28.889Z,23.20
2023-09-23T09:41:06.770Z,23.30
2023-09-23T09:43:34.587Z,23.40
2023-09-23T09:46:09.745Z,23.40
2023-09-23T09:48:42.873Z,23.50
2023-09-23T09:51:15.063Z,23.50
2023-09-23T09:53:45.667Z,23.70
2023-09-23T09:56:14.583Z,23.90
2023-09-23T09:58:42.818Z,24.00
2023-09-23T10:01:13.117Z,24.00
2023-09-23T10:03:44.861Z,24.10
2023-09-23T10:06:20.614Z,24.20
2023-09-23T10:08:49.644Z,24.30
2023-09-23T10:11:17.659Z,24.50
2023-09-23T10:13:44.856Z,24.60
2023-09-23T10:16:20.461Z,24.90
2023-09-23T10:18:58.348Z,25.10
2023-09-23T10:21:28.967Z,25.00
2023-09-23T10:23:57.595Z,24.90
2023-09-23T10:26:30.290Z,25.00
2023-09-23T10:29:01.026Z,25.00
2023-09-23T10:31:32.357Z,25.10
2023-09-23T10:34:04.391Z,25.20
2023-09-23T10:36:31.554Z,25.40
2023-09-23T10:38:58.512Z,25.50
2023-09-23T10:41:38.058Z,25.80
2023-09-23T10:44:05.479Z,26.20
2023-09-23T10:46:33.065Z,26.10
2023-09-23T10:49:01.031Z,25.40
2023-09-23T10:51:28.415Z,25.10
2023-09-23T10:53:57.089Z,24.80
2023-09-23T10:56:26.136Z,24.90
2023-09-23T10:58:53.559Z,25.40
2023-09-23T11:01:22.215Z,25.90
2023-09-23T11:03:49.601Z,25.90
2023-09-23T11:06:18.125Z,26.20
2023-09-23T11:08:45.305Z,26.80
2023-09-23T11:11:14.104Z,27.00
2023-09-23T11:13:41.731Z,26.70
2023-09-23T11:16:12.044Z,27.20
2023-09-23T11:18:39.472Z,27.80
2023-09-23T11:21:06.793Z,28.20
2023-09-23T11:23:34.876Z,28.70
2023-09-23T11:26:02.071Z,28.80
2023-09-23T11:28:29.340Z,27.80
2023-09-23T11:30:57.532Z,26.20
2023-09-23T11:33:26.210Z,25.40
2023-09-23T11:35:55.630Z,25.00
2023-09-23T11:38:22.572Z,25.50
2023-09-23T11:40:49.652Z,26.40
2023-09-23T11:43:16.940Z,27.40
2023-09-23T11:45:44.397Z,28.10
2023-09-23T11:48:11.504Z,27.90
2023-09-23T11:50:39.363Z,27.10
2023-09-23T11:53:06.668Z,26.50
2023-09-23T11:55:34.502Z,26.10
2023-09-23T11:58:02.028Z,25.80
2023-09-23T12:00:29.850Z,25.20
2023-09-23T12:02:57.901Z,24.80
2023-09-23T12:05:30.672Z,24.20
2023-09-23T12:08:02.071Z,23.70
2023-09-23T12:10:30.464Z,23.50
2023-09-23T12:13:04.399Z,23.40
2023-09-23T12:15:35.526Z,23.20
2023-09-23T12:18:02.686Z,23.00
2023-09-23T12:20:29.709Z,22.80
2023-09-23T12:22:59.917Z,22.50
2023-09-23T12:25:27.035Z,22.40
2023-09-23T12:27:53.808Z,22.30
2023-09-23T12:30:20.955Z,22.20
2023-09-23T12:32:47.919Z,22.10
2023-09-23T12:35:15.029Z,21.80
2023-09-23T12:37:42.062Z,21.60
2023-09-23T12:40:11.036Z,21.50
2023-09-23T12:42:37.875Z,21.50
2023-09-23T12:45:06.593Z,21.40
2023-09-23T12:47:48.933Z,21.20
2023-09-23T12:50:20.419Z,21.10
2023-09-23T12:52:47.738Z,20.90
2023-09-23T12:55:14.573Z,20.70
2023-09-23T12:57:41.458Z,20.20
2023-09-23T13:00:09.061Z,19.70
2023-09-23T13:02:36.026Z,19.40
2023-09-23T13:05:03.771Z,19.20
2023-09-23T13:07:30.728Z,19.00
2023-09-23T13:09:57.590Z,18.90
2023-09-23T13:12:24.518Z,19.00
2023-09-23T13:14:51.440Z,19.10
2023-09-23T13:17:18.572Z,19.30
2023-09-23T13:19:45.834Z,19.40
2023-09-23T13:22:12.783Z,19.50
2023-09-23T13:24:39.573Z,19.60
2023-09-23T13:27:07.131Z,19.60
2023-09-23T13:29:34.228Z,19.40
2023-09-23T13:32:01.215Z,19.50
2023-09-23T13:34:28.222Z,19.50
2023-09-23T13:36:55.087Z,19.60
2023-09-23T13:39:21.910Z,19.60
2023-09-23T13:41:48.748Z,19.50
2023-09-23T13:44:15.672Z,19.70
2023-09-23T13:46:42.659Z,19.80
2023-09-23T13:49:09.458Z,20.00
2023-09-23T13:51:36.421Z,20.30
2023-09-23T13:54:04.000Z,20.40
2023-09-23T13:56:31.031Z,20.30
2023-09-23T13:58:58.001Z,20.30
2023-09-23T14:01:24.911Z,20.20
2023-09-23T14:03:53.124Z,20.30
2023-09-23T14:06:20.062Z,20.40
2023-09-23T14:08:47.033Z,20.60
2023-09-23T14:11:14.544Z,20.70
2023-09-23T14:13:41.714Z,20.60
2023-09-23T14:16:08.999Z,20.60
2023-09-23T14:18:36.394Z,20.60
2023-09-23T14:21:03.608Z,20.70
2023-09-23T14:23:31.845Z,20.70
2023-09-23T14:25:58.712Z,20.90
2023-09-23T14:28:26.130Z,21.00
2023-09-23T14:30:53.136Z,21.10
2023-09-23T14:33:20.056Z,21.20
2023-09-23T14:35:46.876Z,21.10
2023-09-23T14:38:13.846Z,21.10
2023-09-23T14:40:41.041Z,21.10
2023-09-23T14:43:07.805Z,21.20
2023-09-23T14:45:34.839Z,21.40
2023-09-23T14:48:01.885Z,21.50
2023-09-23T14:50:29.006Z,21.50
2023-09-23T14:52:57.144Z,21.60
2023-09-23T14:55:24.032Z,21.70
2023-09-23T14:57:51.034Z,21.80
2023-09-23T15:00:18.119Z,21.80
2023-09-23T15:02:45.458Z,21.90
2023-09-23T15:05:12.540Z,22.00
2023-09-23T15:07:39.973Z,22.10
2023-09-23T15:10:08.069Z,22.20
2023-09-23T15:12:36.457Z,22.20
2023-09-23T15:15:07.957Z,22.20
2023-09-23T15:17:39.429Z,22.00
2023-09-23T15:20:11.229Z,22.00
2023-09-23T15:22:39.019Z,21.80
2023-09-23T15:25:10.755Z,21.80
2023-09-23T15:27:38.343Z,22.00
2023-09-23T15:30:10.656Z,22.10
2023-09-23T15:32:38.777Z,22.00
2023-09-23T15:35:07.905Z,22.00
2023-09-23T15:37:35.145Z,21.90
2023-09-23T15:40:02.043Z,21.90
2023-09-23T15:42:30.492Z,21.80
2023-09-23T15:44:57.467Z,21.90
2023-09-23T15:47:24.366Z,21.80
2023-09-23T15:49:51.259Z,21.50
2023-09-23T15:52:18.599Z,21.30
2023-09-23T15:54:45.448Z,21.10
2023-09-23T15:57:12.531Z,20.80
2023-09-23T15:59:39.372Z,20.70
2023-09-23T16:02:06.384Z,20.80
2023-09-23T16:04:33.879Z,20.80
2023-09-23T16:07:01.002Z,20.60
2023-09-23T16:09:27.735Z,20.60
2023-09-23T16:11:54.516Z,20.40
2023-09-23T16:14:21.459Z,20.40
2023-09-23T16:16:48.947Z,20.40
2023-09-23T16:19:16.132Z,20.40
2023-09-23T16:21:43.038Z,20.40
2023-09-23T16:24:09.929Z,20.30
2023-09-23T16:26:36.927Z,20.20
2023-09-23T16:29:04.601Z,20.00
2023-09-23T16:31:31.510Z,20.00
2023-09-23T16:33:58.534Z,20.00
2023-09-23T16:36:26.110Z,19.90
2023-09-23T16:38:53.119Z,19.90
2023-09-23T16:41:20.306Z,19.90
2023-09-23T16:43:48.965Z,19.80
2023-09-23T16:46:16.094Z,19.80
2023-09-23T16:48:42.983Z,19.80
2023-09-23T16:51:10.037Z,19.60
2023-09-23T16:53:37.488Z,19.60
2023-09-23T16:56:04.751Z,19.50
2023-09-23T16:58:31.639Z,19.50
2023-09-23T17:00:58.630Z,19.50
2023-09-23T17:03:25.566Z,19.50
2023-09-23T17:05:55.530Z,19.50
2023-09-23T17:08:22.372Z,19.60
2023-09-23T17:10:49.265Z,19.60
2023-09-23T17:13:16.456Z,19.60
2023-09-23T17:15:43.263Z,19.50
2023-09-23T17:18:10.538Z,19.40
2023-09-23T17:20:37.718Z,19.30
2023-09-23T17:23:04.801Z,19.30
2023-09-23T17:25:31.692Z,19.20
2023-09-23T17:27:58.645Z,19.10
2023-09-23T17:30:25.394Z,19.10
2023-09-23T17:32:52.350Z,19.10
2023-09-23T17:35:19.765Z,19.00
2023-09-23T17:37:46.712Z,19.00
2023-09-23T17:40:15.731Z,19.00
2023-09-23T17:42:42.803Z,19.00
2023-09-23T17:45:10.144Z,18.90
2023-09-23T17:47:37.182Z,18.80
2023-09-23T17:50:05.314Z,18.80
2023-09-23T17:52:32.737Z,18.70
2023-09-23T17:55:00.288Z,18.70
2023-09-23T17:57:28.661Z,18.70
2023-09-23T17:59:55.609Z,18.70
2023-09-23T18:02:22.631Z,18.70
2023-09-23T18:04:49.617Z,18.60
2023-09-23T18:07:16.455Z,18.60
2023-09-23T18:09:44.002Z,18.60
2023-09-23T18:12:11.762Z,18.50
2023-09-23T18:14:38.893Z,18.50
2023-09-23T18:17:05.918Z,18.60
2023-09-23T18:19:37.489Z,18.60
2023-09-23T18:22:04.669Z,18.50
2023-09-23T18:24:32.651Z,18.50
2023-09-23T18:26:59.782Z,18.40
2023-09-23T18:29:26.829Z,18.40
2023-09-23T18:31:53.758Z,18.40
2023-09-23T18:34:21.561Z,18.40
2023-09-23T18:36:48.670Z,18.40
2023-09-23T18:39:15.627Z,18.50
2023-09-23T18:41:43.400Z,18.50
2023-09-23T18:44:10.427Z,18.50
2023-09-23T18:46:37.837Z,18.40
2023-09-23T18:49:04.813Z,18.30
2023-09-23T18:51:31.626Z,18.30
2023-09-23T18:53:58.718Z,18.20
2023-09-23T18:56:25.786Z,18.30
2023-09-23T18:58:52.605Z,18.20
2023-09-23T19:01:19.474Z,18.10
2023-09-23T19:03:46.480Z,18.10
2023-09-23T19:06:13.648Z,18.10
2023-09-23T19:08:40.608Z,18.00
2023-09-23T19:11:07.940Z,18.00
2023-09-23T19:13:35.673Z,18.00
2023-09-23T19:16:03.131Z,18.00
2023-09-23T19:18:30.112Z,18.00
2023-09-23T19:20:57.654Z,18.20
2023-09-23T19:23:25.789Z,18.20
2023-09-23T19:25:53.919Z,18.30
2023-09-23T19:28:22.424Z,18.20
2023-09-23T19:30:49.612Z,18.20
2023-09-23T19:33:17.934Z,18.20
2023-09-23T19:35:45.149Z,18.10
2023-09-23T19:38:12.237Z,18.00
2023-09-23T19:40:40.206Z,18.10
2023-09-23T19:43:07.265Z,18.00
2023-09-23T19:45:34.132Z,18.00
2023-09-23T19:48:01.342Z,18.10
2023-09-23T19:50:29.321Z,18.20
2023-09-23T19:53:00.736Z,18.10
2023-09-23T19:55:30.618Z,18.20
2023-09-23T19:57:57.399Z,18.20
2023-09-23T20:00:29.260Z,18.20
2023-09-23T20:02:56.905Z,18.20
2023-09-23T20:05:24.053Z,18.20
2023-09-23T20:07:50.919Z,18.20
2023-09-23T20:10:17.772Z,18.20
2023-09-23T20:12:44.698Z,18.30
2023-09-23T20:15:11.659Z,18.30
2023-09-23T20:17:40.062Z,18.30
2023-09-23T20:20:09.137Z,18.40
2023-09-23T20:22:36.174Z,18.40
2023-09-23T20:25:03.238Z,18.40
2023-09-23T20:27:30.484Z,18.30
2023-09-23T20:30:06.603Z,18.00
2023-09-23T20:32:39.387Z,17.90
2023-09-23T20:35:08.357Z,17.80
2023-09-23T20:37:39.464Z,17.80
2023-09-23T20:40:08.117Z,17.90
2023-09-23T20:42:35.913Z,17.80
2023-09-23T20:45:07.694Z,17.80
2023-09-23T20:47:36.344Z,17.80
2023-09-23T20:50:06.185Z,17.70
2023-09-23T20:52:34.107Z,17.50
2023-09-23T20:55:00.947Z,17.40
2023-09-23T20:57:30.750Z,17.40
2023-09-23T20:59:57.929Z,17.50
2023-09-23T21:02:24.992Z,17.50
2023-09-23T21:04:51.951Z,17.40
2023-09-23T21:07:20.648Z,17.30
2023-09-23T21:09:47.470Z,17.40
2023-09-23T21:12:14.540Z,17.40
2023-09-23T21:14:41.393Z,17.40
2023-09-23T21:17:08.440Z,17.50
2023-09-23T21:19:35.508Z,17.50
2023-09-23T21:22:02.639Z,17.40
2023-09-23T21:24:29.451Z,17.20
2023-09-23T21:26:57.182Z,17.30
2023-09-23T21:29:24.395Z,17.10
2023-09-23T21:31:51.223Z,17.20
2023-09-23T21:34:18.365Z,17.20
2023-09-23T21:36:45.995Z,17.10
2023-09-23T21:39:12.940Z,17.00
2023-09-23T21:41:39.760Z,17.10
2023-09-23T21:44:07.210Z,17.20
2023-09-23T21:46:34.326Z,17.10
2023-09-23T21:49:01.640Z,17.10
2023-09-23T21:51:33.694Z,17.10
2023-09-23T21:54:00.616Z,17.00
2023-09-23T21:56:41.488Z,17.00
2023-09-23T21:59:11.147Z,16.90
2023-09-23T22:01:38.143Z,17.00
2023-09-23T22:04:08.104Z,16.90
2023-09-23T22:06:36.889Z,16.80
2023-09-23T22:09:04.406Z,16.70
2023-09-23T22:11:34.328Z,16.60
2023-09-23T22:14:03.313Z,16.60
2023-09-23T22:16:30.165Z,16.60
2023-09-23T22:18:57.096Z,16.70
2023-09-23T22:21:24.354Z,16.70
2023-09-23T22:23:51.282Z,16.90
2023-09-23T22:26:18.248Z,16.80
2023-09-23T22:28:45.029Z,16.60
2023-09-23T22:31:12.511Z,16.60
2023-09-23T22:33:39.437Z,16.60
2023-09-23T22:36:09.013Z,16.50
2023-09-23T22:38:36.979Z,16.60
2023-09-23T22:41:04.388Z,16.70
2023-09-23T22:43:31.168Z,16.60
2023-09-23T22:46:00.134Z,16.60
2023-09-23T22:48:27.701Z,16.60
2023-09-23T22:50:54.799Z,16.70
2023-09-23T22:53:22.347Z,16.70
2023-09-23T22:55:49.970Z,16.60
2023-09-23T22:58:17.358Z,16.70
2023-09-23T23:00:44.270Z,16.60
2023-09-23T23:03:13.719Z,16.80
2023-09-23T23:05:41.630Z,16.80
2023-09-23T23:08:09.393Z,16.60
2023-09-23T23:10:36.388Z,16.70
2023-09-23T23:13:06.411Z,16.70
2023-09-23T23:15:37.015Z,16.60
2023-09-23T23:18:05.004Z,16.50
2023-09-23T23:20:35.650Z,16.60
2023-09-23T23:23:02.637Z,16.40
2023-09-23T23:25:29.415Z,16.30
2023-09-23T23:27:56.254Z,16.40
2023-09-23T23:30:23.270Z,16.50
2023-09-23T23:32:53.098Z,16.40
2023-09-23T23:35:23.042Z,16.50
2023-09-23T23:37:50.804Z,16.50
2023-09-23T23:40:21.249Z,16.50
2023-09-23T23:42:48.814Z,16.50
2023-09-23T23:45:17.203Z,16.40
2023-09-23T23:47:44.079Z,16.50
2023-09-23T23:50:11.486Z,16.50
2023-09-23T23:52:38.290Z,16.40
2023-09-23T23:55:05.424Z,16.30
2023-09-23T23:57:32.302Z,16.40
2023-09-23T23:59:59.156Z,16.30
